Time;durP1;ratioP1;P1;durP2;ratioP2;P2;SDS_P1;SDS_P2;PMS_P1;PMS_P2;Temp;Humidity;BMP_temperature;BMP_pressure;BME280_temperature;BME280_humidity;BME280_pressure;Samples;Min_cycle;Max_cycle;Signal;HPM_P1;HPM_P2
2022/05/19 00:02:23;;;;;;;7.23;5.90;;;19.40;79.70;;;;;;5035942;28;20472;-89
2022/05/19 00:04:48;;;;;;;6.90;5.67;;;19.40;90.50;;;;;;5035886;28;20416;-89
2022/05/19 00:07:15;;;;;;;6.67;5.00;;;19.30;93.10;;;;;;5034671;28;20171;-91
2022/05/19 00:09:44;;;;;;;6.63;6.03;;;19.30;94.80;;;;;;5035994;28;20173;-89
2022/05/19 00:12:21;;;;;;;7.83;6.70;;;19.30;87.70;;;;;;5035970;28;20444;-89
2022/05/19 00:14:46;;;;;;;7.00;6.30;;;19.20;94.70;;;;;;5050994;28;20403;-88
2022/05/19 00:17:12;;;;;;;5.87;5.30;;;19.20;99.90;;;;;;5050513;28;20418;-89
2022/05/19 00:19:38;;;;;;;7.10;4.70;;;19.10;99.90;;;;;;5052246;28;20475;-88
2022/05/19 00:22:04;;;;;;;9.33;6.60;;;19.10;99.90;;;;;;5054133;28;20217;-90
2022/05/19 00:24:30;;;;;;;6.83;6.17;;;19.10;99.90;;;;;;5048203;28;20191;-91
2022/05/19 00:26:58;;;;;;;7.60;6.80;;;19.10;99.90;;;;;;5036014;28;20452;-88
2022/05/19 00:29:25;;;;;;;6.47;5.73;;;19.10;99.90;;;;;;5035293;28;20416;-89
2022/05/19 00:31:52;;;;;;;7.17;6.27;;;19.00;99.90;;;;;;5037099;28;20854;-92
2022/05/19 00:34:18;;;;;;;6.43;5.83;;;19.10;99.90;;;;;;5043050;28;20512;-92
2022/05/19 00:36:43;;;;;;;7.13;5.80;;;19.00;99.90;;;;;;5043374;28;20471;-92
2022/05/19 00:39:11;;;;;;;7.80;5.93;;;19.00;99.90;;;;;;5052461;28;20190;-92
2022/05/19 00:42:43;;;;;;;6.50;5.90;;;19.00;99.90;;;;;;5057262;28;20237;-91
2022/05/19 00:44:40;;;;;;;6.97;6.37;;;19.00;99.90;;;;;;5086512;22;20503;-92
2022/05/19 00:47:11;;;;;;;6.13;5.57;;;18.90;99.90;;;;;;5082698;28;20449;-91
2022/05/19 00:49:41;;;;;;;7.47;5.70;;;18.90;99.90;;;;;;5078548;28;20517;-91
2022/05/19 00:52:32;;;;;;;8.33;6.60;;;18.90;99.90;;;;;;5087331;28;20431;-91
2022/05/19 00:55:37;;;;;;;7.23;6.23;;;18.90;99.90;;;;;;5078692;28;20946;-93
2022/05/19 01:00:31;;;;;;;6.53;5.93;;;18.80;99.90;;;;;;5076192;28;20467;-92
2022/05/19 01:03:00;;;;;;;7.10;6.10;;;18.80;99.90;;;;;;5067261;22;20525;-91
2022/05/19 01:05:31;;;;;;;6.87;6.20;;;18.70;99.90;;;;;;5076863;28;20247;-92
2022/05/19 01:08:16;;;;;;;6.97;6.37;;;18.70;99.90;;;;;;5074470;28;20470;-93
2022/05/19 01:10:43;;;;;;;9.50;6.37;;;18.60;99.90;;;;;;5076035;28;20421;-93
2022/05/19 01:15:44;;;;;;;7.77;6.50;;;18.50;99.90;;;;;;5066896;28;20490;-95
2022/05/19 01:18:12;;;;;;;7.30;6.53;;;18.60;99.90;;;;;;5052050;28;20418;-95
2022/05/19 01:20:38;;;;;;;7.90;7.10;;;18.60;99.90;;;;;;5038383;28;20495;-96
2022/05/19 01:23:11;;;;;;;7.20;6.50;;;18.50;99.90;;;;;;5053351;28;20436;-96
2022/05/19 01:26:03;;;;;;;7.00;6.40;;;18.50;99.90;;;;;;5057892;28;20168;-96
2022/05/19 01:28:29;;;;;;;7.73;6.10;;;18.50;99.90;;;;;;5050508;28;20946;-96
2022/05/19 01:30:55;;;;;;;7.23;6.57;;;18.50;99.90;;;;;;5049614;28;20446;-95
2022/05/19 01:33:20;;;;;;;7.73;6.00;;;18.40;99.90;;;;;;5045731;28;20418;-94
2022/05/19 01:35:46;;;;;;;7.77;6.70;;;18.40;99.90;;;;;;5040727;28;20207;-94
2022/05/19 01:38:16;;;;;;;9.17;6.90;;;18.40;99.90;;;;;;5039380;28;20176;-95
2022/05/19 01:41:07;;;;;;;9.00;6.57;;;18.40;99.90;;;;;;5039609;28;20207;-94
2022/05/19 01:43:51;;;;;;;6.70;6.20;;;18.40;99.90;;;;;;5037918;28;20444;-94
2022/05/19 01:46:37;;;;;;;7.17;6.40;;;18.40;99.90;;;;;;5038541;28;20423;-96
2022/05/19 01:49:16;;;;;;;6.37;5.47;;;18.40;99.90;;;;;;5038183;28;20414;-93
2022/05/19 01:52:21;;;;;;;9.67;6.40;;;18.30;99.90;;;;;;5036818;28;20832;-92
2022/05/19 01:55:08;;;;;;;8.83;6.33;;;18.20;99.90;;;;;;5036649;28;20415;-92
2022/05/19 01:57:45;;;;;;;11.60;7.47;;;18.20;99.90;;;;;;5053048;28;20797;-92
2022/05/19 02:00:21;;;;;;;6.90;6.27;;;18.20;99.90;;;;;;5036938;28;20498;-93
2022/05/19 02:03:11;;;;;;;7.93;6.93;;;18.20;99.90;;;;;;5036571;28;20426;-94
2022/05/19 02:05:49;;;;;;;8.00;7.30;;;18.10;99.90;;;;;;5036776;28;20825;-92
2022/05/19 02:08:25;;;;;;;7.50;6.80;;;18.10;99.90;;;;;;5036976;28;20517;-91
2022/05/19 02:10:53;;;;;;;8.50;7.60;;;18.10;99.90;;;;;;5036591;28;20432;-91
2022/05/19 02:13:20;;;;;;;7.03;6.33;;;18.10;99.90;;;;;;5036127;28;20843;-94
2022/05/19 02:15:49;;;;;;;7.43;6.70;;;18.10;99.90;;;;;;5037612;28;20469;-94
2022/05/19 02:18:18;;;;;;;9.20;7.67;;;18.10;99.90;;;;;;5036536;28;20507;-95
2022/05/19 02:20:45;;;;;;;7.40;6.20;;;18.10;99.90;;;;;;5049195;28;20464;-94
2022/05/19 02:23:12;;;;;;;7.53;6.77;;;18.00;99.90;;;;;;5049363;28;20506;-93
2022/05/19 02:25:45;;;;;;;9.60;8.57;;;18.00;99.90;;;;;;5049932;28;20425;-95
2022/05/19 02:28:20;;;;;;;10.97;7.23;;;18.00;99.90;;;;;;5046930;28;20411;-96
2022/05/19 02:30:45;;;;;;;9.53;6.50;;;18.00;99.90;;;;;;5046193;28;20417;-93
2022/05/19 02:33:13;;;;;;;8.73;7.10;;;17.90;99.90;;;;;;5041107;28;20455;-93
2022/05/19 02:35:39;;;;;;;7.00;6.20;;;17.90;99.90;;;;;;5046279;28;20172;-94
2022/05/19 02:38:05;;;;;;;7.50;6.80;;;17.90;99.90;;;;;;5044461;28;20490;-95
2022/05/19 02:40:33;;;;;;;10.10;6.43;;;17.90;99.90;;;;;;5042092;28;20627;-95
2022/05/19 02:42:59;;;;;;;6.63;5.97;;;17.80;99.90;;;;;;5044912;28;20441;-92
2022/05/19 02:45:26;;;;;;;7.20;6.60;;;17.90;99.90;;;;;;5044073;28;20418;-95
2022/05/19 02:47:52;;;;;;;6.00;5.40;;;17.90;99.90;;;;;;5043848;28;20437;-93
2022/05/19 02:50:19;;;;;;;7.73;6.93;;;17.90;99.90;;;;;;5048810;28;20483;-92
2022/05/19 02:52:45;;;;;;;8.33;6.13;;;17.80;99.90;;;;;;5042252;28;20181;-94
2022/05/19 02:55:11;;;;;;;11.07;7.17;;;17.80;99.90;;;;;;5047669;28;20904;-93
2022/05/19 02:57:36;;;;;;;6.90;6.30;;;17.80;99.90;;;;;;5038230;28;20275;-95
2022/05/19 03:00:07;;;;;;;6.80;6.10;;;17.80;99.90;;;;;;5056006;28;20445;-92
2022/05/19 03:02:33;;;;;;;7.40;6.80;;;17.70;99.90;;;;;;5052282;28;20635;-93
2022/05/19 03:04:59;;;;;;;6.50;5.90;;;17.70;99.90;;;;;;5040257;28;20415;-94
2022/05/19 03:07:24;;;;;;;8.93;7.57;;;17.80;99.90;;;;;;5040273;28;20177;-93
2022/05/19 03:09:50;;;;;;;8.50;6.83;;;17.80;99.90;;;;;;5040127;28;20411;-93
2022/05/19 03:12:16;;;;;;;7.13;6.40;;;17.80;99.90;;;;;;5039851;28;20173;-93
2022/05/19 03:14:41;;;;;;;7.90;6.63;;;17.80;99.90;;;;;;5039674;28;20519;-92
2022/05/19 03:17:11;;;;;;;6.87;6.27;;;17.80;99.90;;;;;;5039741;28;20224;-94
2022/05/19 03:19:37;;;;;;;6.80;6.17;;;17.80;99.90;;;;;;5040081;28;20174;-95
2022/05/19 03:22:04;;;;;;;7.10;5.57;;;17.80;99.90;;;;;;5039938;28;20978;-93
2022/05/19 03:24:30;;;;;;;7.20;6.03;;;17.80;99.90;;;;;;5039833;28;20783;-94
2022/05/19 03:26:55;;;;;;;6.10;5.50;;;17.70;99.90;;;;;;5057300;28;20516;-91
2022/05/19 03:29:21;;;;;;;8.33;7.43;;;17.70;99.90;;;;;;5040213;28;20187;-93
2022/05/19 03:31:47;;;;;;;8.57;6.13;;;17.80;99.90;;;;;;5039690;28;20175;-94
2022/05/19 03:34:16;;;;;;;8.50;7.80;;;17.80;99.90;;;;;;5039520;28;20169;-94
2022/05/19 03:36:43;;;;;;;7.33;6.63;;;17.80;99.90;;;;;;5039526;28;20180;-94
2022/05/19 03:39:09;;;;;;;6.73;6.13;;;17.80;99.90;;;;;;5039305;28;20419;-92
2022/05/19 03:41:34;;;;;;;7.60;6.33;;;17.80;99.90;;;;;;5039617;28;20466;-93
2022/05/19 03:44:00;;;;;;;8.40;6.67;;;17.80;99.90;;;;;;5039371;28;20171;-95
2022/05/19 03:46:25;;;;;;;7.13;6.53;;;17.80;99.90;;;;;;5042140;28;20191;-93
2022/05/19 03:48:52;;;;;;;7.87;7.07;;;17.80;99.90;;;;;;5041382;28;20200;-95
2022/05/19 03:51:22;;;;;;;7.90;6.30;;;17.80;99.90;;;;;;5040475;28;20604;-95
2022/05/19 03:53:49;;;;;;;8.73;6.40;;;17.80;99.90;;;;;;5038833;28;20445;-89
2022/05/19 03:56:14;;;;;;;8.10;7.27;;;17.80;99.90;;;;;;5038516;28;20523;-91
2022/05/19 03:58:40;;;;;;;7.83;7.03;;;17.80;99.90;;;;;;5038312;28;20448;-91
2022/05/19 04:01:06;;;;;;;7.63;6.97;;;17.70;99.90;;;;;;5038354;28;20232;-89
2022/05/19 04:03:31;;;;;;;7.80;7.00;;;17.80;99.90;;;;;;5038756;28;20182;-92
2022/05/19 04:05:57;;;;;;;9.60;6.73;;;17.70;99.90;;;;;;5038594;28;20208;-95
2022/05/19 04:08:22;;;;;;;6.93;6.30;;;17.80;99.90;;;;;;5038743;28;20251;-92
2022/05/19 04:10:48;;;;;;;7.20;6.50;;;17.80;99.90;;;;;;5038948;28;20490;-93
2022/05/19 04:13:14;;;;;;;6.70;6.00;;;17.70;99.90;;;;;;5038318;28;20260;-93
2022/05/19 04:15:39;;;;;;;7.63;5.67;;;17.70;99.90;;;;;;5038653;28;20185;-93
2022/05/19 04:18:06;;;;;;;7.73;6.93;;;17.70;99.90;;;;;;5038892;28;20420;-93
2022/05/19 04:20:32;;;;;;;7.73;7.03;;;17.70;99.90;;;;;;5038724;28;20233;-91
2022/05/19 04:22:59;;;;;;;10.07;6.90;;;17.80;99.90;;;;;;5039307;28;20889;-93
2022/05/19 04:25:25;;;;;;;7.87;6.87;;;17.70;99.90;;;;;;5038640;28;20426;-93
2022/05/19 04:27:51;;;;;;;7.00;6.40;;;17.80;99.90;;;;;;5038213;28;20428;-95
2022/05/19 04:30:16;;;;;;;10.40;7.07;;;17.80;99.90;;;;;;5038479;28;20832;-92
2022/05/19 04:32:43;;;;;;;8.07;7.30;;;17.80;99.90;;;;;;5039013;28;20175;-93
2022/05/19 04:35:09;;;;;;;9.87;7.67;;;17.90;99.90;;;;;;5038401;28;20174;-92
2022/05/19 04:37:34;;;;;;;10.37;7.13;;;17.90;99.90;;;;;;5038522;28;20423;-92
2022/05/19 04:40:01;;;;;;;7.87;7.03;;;17.90;99.90;;;;;;5038013;28;20511;-91
2022/05/19 04:42:27;;;;;;;9.73;7.83;;;17.90;99.90;;;;;;5055484;28;20570;-91
2022/05/19 04:44:57;;;;;;;8.87;8.00;;;17.90;99.90;;;;;;5038115;28;20417;-90
2022/05/19 04:47:23;;;;;;;10.03;8.73;;;18.00;99.90;;;;;;5038452;28;20407;-91
2022/05/19 04:49:48;;;;;;;8.13;7.43;;;18.00;99.90;;;;;;5037887;28;20421;-91
2022/05/19 04:52:14;;;;;;;7.90;7.10;;;18.00;99.90;;;;;;5037775;28;20917;-93
2022/05/19 04:54:40;;;;;;;8.30;6.93;;;18.00;99.90;;;;;;5038196;28;20181;-91
2022/05/19 04:57:06;;;;;;;9.03;7.20;;;18.10;99.90;;;;;;5037677;28;20207;-91
2022/05/19 04:59:36;;;;;;;8.27;7.47;;;18.20;99.90;;;;;;5038017;28;20227;-91
2022/05/19 05:02:01;;;;;;;7.93;7.10;;;18.30;99.90;;;;;;5037462;28;20481;-91
2022/05/19 05:04:27;;;;;;;9.47;7.13;;;18.40;99.90;;;;;;5037218;28;20413;-94
2022/05/19 05:06:53;;;;;;;8.87;6.50;;;18.40;99.90;;;;;;5055565;28;20186;-93
2022/05/19 05:09:19;;;;;;;7.30;6.60;;;18.50;99.90;;;;;;5037887;28;20192;-93
2022/05/19 05:11:45;;;;;;;7.13;6.43;;;18.70;99.90;;;;;;5037267;28;20509;-91
2022/05/19 05:14:10;;;;;;;8.43;7.57;;;18.70;99.90;;;;;;5037504;28;20259;-94
2022/05/19 05:16:36;;;;;;;8.60;7.63;;;18.80;99.90;;;;;;5054863;28;20171;-93
2022/05/19 05:19:02;;;;;;;8.13;7.17;;;18.90;99.90;;;;;;5037385;28;20167;-90
2022/05/19 05:21:27;;;;;;;8.73;6.73;;;19.00;99.90;;;;;;5038104;28;20203;-93
2022/05/19 05:23:53;;;;;;;7.87;6.63;;;19.20;99.90;;;;;;5054487;28;20198;-93
2022/05/19 05:26:18;;;;;;;11.50;7.70;;;19.20;98.10;;;;;;5054977;28;20216;-89
2022/05/19 05:28:43;;;;;;;7.80;6.67;;;19.30;99.90;;;;;;5035904;28;20168;-87
2022/05/19 05:31:09;;;;;;;10.13;6.40;;;19.40;95.60;;;;;;5053764;28;20208;-86
2022/05/19 05:33:34;;;;;;;8.70;6.27;;;19.50;61.00;;;;;;5040051;28;20269;-92
2022/05/19 05:36:00;;;;;;;7.43;6.13;;;19.50;6.80;;;;;;5039715;28;20310;-87
2022/05/19 05:38:26;;;;;;;8.90;8.10;;;19.80;1.00;;;;;;5057029;28;20208;-94
2022/05/19 05:40:51;;;;;;;9.60;6.77;;;19.80;1.00;;;;;;5053656;28;20669;-90
2022/05/19 05:43:19;;;;;;;7.47;6.77;;;19.80;1.00;;;;;;5034756;28;20188;-90
2022/05/19 05:45:49;;;;;;;7.40;6.03;;;19.80;1.00;;;;;;5035338;28;20284;-93
2022/05/19 05:48:16;;;;;;;7.93;6.97;;;19.90;1.00;;;;;;5035592;28;20454;-89
2022/05/19 05:50:42;;;;;;;8.50;6.33;;;20.10;1.00;;;;;;5036519;28;20481;-91
2022/05/19 05:53:08;;;;;;;10.30;6.10;;;20.20;1.00;;;;;;5036078;28;20462;-89
2022/05/19 05:55:35;;;;;;;6.37;5.80;;;20.30;1.00;;;;;;5036177;28;20857;-90
2022/05/19 05:58:07;;;;;;;7.33;6.60;;;20.60;1.00;;;;;;5035994;28;20444;-89
2022/05/19 06:00:32;;;;;;;7.27;6.53;;;20.80;1.00;;;;;;5035688;28;20519;-92
2022/05/19 06:03:01;;;;;;;6.50;5.90;;;20.80;1.00;;;;;;5035924;28;20518;-92
2022/05/19 06:05:27;;;;;;;6.87;6.17;;;21.10;1.00;;;;;;5035762;28;20209;-87
2022/05/19 06:07:52;;;;;;;7.03;6.07;;;21.00;1.00;;;;;;5053730;28;20450;-87
2022/05/19 06:10:18;;;;;;;6.77;6.03;;;21.00;1.00;;;;;;5036120;28;20183;-88
2022/05/19 06:12:44;;;;;;;6.73;5.73;;;21.30;1.00;;;;;;5036057;28;20229;-92
2022/05/19 06:15:12;;;;;;;7.53;5.73;;;21.40;1.00;;;;;;5052755;28;21082;-88
2022/05/19 06:17:39;;;;;;;6.37;5.73;;;21.70;99.90;;;;;;5035499;28;20173;-87
2022/05/19 06:20:10;;;;;;;6.70;6.10;;;21.90;1.00;;;;;;5035107;28;20428;-88
2022/05/19 06:22:36;;;;;;;6.77;5.30;;;22.20;99.90;;;;;;5035195;28;20483;-88
2022/05/19 06:25:02;;;;;;;8.20;5.90;;;22.70;1.00;;;;;;5053110;28;20897;-88
2022/05/19 06:27:28;;;;;;;6.00;5.00;;;22.80;99.90;;;;;;5035035;28;20442;-88
2022/05/19 06:29:53;;;;;;;6.03;5.53;;;23.40;99.90;;;;;;5035325;28;20183;-90
2022/05/19 06:32:20;;;;;;;10.83;5.87;;;24.30;99.90;;;;;;5054589;28;20181;-93
2022/05/19 06:34:46;;;;;;;6.30;5.57;;;24.30;1.00;;;;;;5043304;28;20179;-87
2022/05/19 06:37:12;;;;;;;6.63;5.07;;;25.20;1.00;;;;;;5035475;28;20435;-89
2022/05/19 06:39:38;;;;;;;6.53;5.73;;;25.40;1.00;;;;;;5035716;28;20171;-90
2022/05/19 06:42:04;;;;;;;6.17;5.57;;;25.60;99.90;;;;;;5054924;28;20208;-88
2022/05/19 06:44:33;;;;;;;6.83;5.30;;;25.00;99.90;;;;;;5042939;28;20482;-93
2022/05/19 06:46:59;;;;;;;6.30;4.87;;;24.40;1.00;;;;;;5046017;28;20429;-94
2022/05/19 06:49:31;;;;;;;6.07;4.43;;;24.50;1.00;;;;;;5046943;28;20426;-94
2022/05/19 06:51:57;;;;;;;5.37;4.43;;;24.80;1.00;;;;;;5046793;28;20423;-93
2022/05/19 06:54:26;;;;;;;5.23;4.37;;;25.30;1.00;;;;;;5048935;28;20976;-96
2022/05/19 06:56:52;;;;;;;5.07;4.67;;;26.20;99.90;;;;;;5043756;28;20337;-93
2022/05/19 06:59:19;;;;;;;5.13;3.90;;;26.80;99.90;;;;;;5044256;28;20528;-94
2022/05/19 07:01:45;;;;;;;6.03;4.77;;;27.10;99.90;;;;;;5044978;28;20209;-91
2022/05/19 07:04:12;;;;;;;5.10;4.60;;;26.70;99.90;;;;;;5042177;28;20412;-90
2022/05/19 07:06:38;;;;;;;5.33;4.50;;;27.50;99.90;;;;;;5059753;28;20431;-90
2022/05/19 07:09:06;;;;;;;4.97;4.57;;;27.50;99.90;;;;;;5037005;28;20491;-95
2022/05/19 07:11:32;;;;;;;4.60;4.20;;;27.40;99.90;;;;;;5036017;28;20424;-92
2022/05/19 07:14:01;;;;;;;4.37;3.83;;;28.10;99.90;;;;;;5039791;28;20452;-94
2022/05/19 07:16:27;;;;;;;4.77;3.93;;;28.40;99.90;;;;;;5040190;28;20216;-93
2022/05/19 07:20:43;;;;;;;5.47;3.70;;;28.50;99.90;;;;;;5037877;28;20431;-95
2022/05/19 07:21:42;;;;;;;4.50;3.80;;;28.30;99.90;;;;;;5054268;28;20478;-94
2022/05/19 07:24:16;;;;;;;5.20;3.80;;;28.70;99.90;;;;;;5036912;28;20416;-91
2022/05/19 07:26:47;;;;;;;4.77;4.37;;;29.00;99.90;;;;;;5038192;28;20416;-91
2022/05/19 07:29:14;;;;;;;6.77;4.60;;;29.40;99.90;;;;;;5039607;28;20412;-92
2022/05/19 07:31:41;;;;;;;4.60;4.17;;;29.20;99.90;;;;;;5039339;28;20481;-91
2022/05/19 07:34:10;;;;;;;4.60;3.77;;;29.50;99.90;;;;;;5039358;28;20420;-91
2022/05/19 07:36:36;;;;;;;4.90;4.43;;;30.10;99.90;;;;;;5039562;28;20412;-90
2022/05/19 07:39:02;;;;;;;3.13;2.70;;;29.90;99.90;;;;;;5039699;28;20420;-95
2022/05/19 07:41:30;;;;;;;2.93;2.60;;;30.10;99.90;;;;;;5040029;28;20213;-94
2022/05/19 07:43:57;;;;;;;3.90;3.60;;;30.00;99.90;;;;;;5058710;28;20408;-94
2022/05/19 07:46:24;;;;;;;4.90;3.43;;;30.20;99.90;;;;;;5039333;28;20424;-89
2022/05/19 07:48:50;;;;;;;4.80;4.40;;;30.70;99.90;;;;;;5057377;28;20408;-92
2022/05/19 07:51:16;;;;;;;7.53;3.73;;;30.40;95.10;;;;;;5043288;28;20427;-93
2022/05/19 07:53:41;;;;;;;3.70;3.27;;;29.90;92.90;;;;;;5040875;28;20182;-93
2022/05/19 07:56:07;;;;;;;3.30;2.60;;;30.00;91.00;;;;;;5040456;28;20235;-92
2022/05/19 07:58:32;;;;;;;3.70;2.90;;;30.30;95.00;;;;;;5039578;28;20526;-93
2022/05/19 08:00:59;;;;;;;3.10;2.80;;;30.80;95.80;;;;;;5056794;28;20197;-92
2022/05/19 08:03:25;;;;;;;2.90;2.60;;;30.90;93.90;;;;;;5038739;28;20173;-92
2022/05/19 08:05:52;;;;;;;5.70;2.90;;;30.90;91.00;;;;;;5038972;28;20482;-93
2022/05/19 08:08:17;;;;;;;3.93;2.43;;;30.50;83.70;;;;;;5056433;28;20420;-91
2022/05/19 08:10:46;;;;;;;3.93;2.53;;;30.60;78.90;;;;;;5039210;28;20408;-92
2022/05/19 08:15:59;;;;;;;4.77;2.30;;;31.10;70.30;;;;;;5056546;28;20437;-92
2022/05/19 08:18:28;;;;;;;2.70;2.50;;;31.40;58.70;;;;;;5038803;28;20794;-90
2022/05/19 08:21:04;;;;;;;4.20;2.17;;;31.20;54.50;;;;;;5038018;28;21014;-92
2022/05/19 08:23:36;;;;;;;2.43;2.10;;;31.10;49.00;;;;;;5038444;28;20419;-91
2022/05/19 08:26:03;;;;;;;3.10;2.57;;;32.30;59.20;;;;;;5038290;28;20413;-91
2022/05/19 08:28:30;;;;;;;2.60;2.40;;;31.90;48.00;;;;;;5021201;28;20515;-92
2022/05/19 08:31:22;;;;;;;2.23;1.97;;;31.40;47.10;;;;;;5018866;28;20417;-92
2022/05/19 08:33:51;;;;;;;2.87;2.30;;;30.30;28.70;;;;;;5017397;28;20773;-93
2022/05/19 08:36:16;;;;;;;3.50;1.90;;;30.00;28.90;;;;;;5036950;28;20405;-90
2022/05/19 08:38:42;;;;;;;3.13;2.40;;;30.70;30.00;;;;;;5036081;28;20424;-90
2022/05/19 08:41:25;;;;;;;5.13;2.67;;;32.40;39.50;;;;;;5036920;28;20194;-91
2022/05/19 08:44:06;;;;;;;2.70;2.50;;;33.70;35.00;;;;;;5020201;28;20471;-92
2022/05/19 08:46:38;;;;;;;3.53;1.73;;;33.80;26.50;;;;;;5019666;28;20428;-93
2022/05/19 08:49:10;;;;;;;5.87;2.13;;;33.00;15.10;;;;;;5019715;28;21586;-87
2022/05/19 08:52:04;;;;;;;3.33;2.20;;;33.50;16.10;;;;;;5038687;28;20465;-94
2022/05/19 08:54:31;;;;;;;3.33;1.73;;;33.90;17.30;;;;;;5022169;28;20936;-90
2022/05/19 08:57:11;;;;;;;5.87;2.40;;;33.70;13.10;;;;;;5023210;28;20421;-94
2022/05/19 08:59:40;;;;;;;2.37;1.70;;;33.30;7.30;;;;;;5024075;28;20471;-92
2022/05/19 09:02:14;;;;;;;3.10;1.77;;;33.00;6.90;;;;;;5020788;28;20428;-91
2022/05/19 09:05:14;;;;;;;2.20;2.00;;;32.80;4.80;;;;;;5047046;28;20468;-91
2022/05/19 09:08:10;;;;;;;2.57;2.20;;;31.80;1.00;;;;;;5030769;28;20432;-87
2022/05/19 09:10:45;;;;;;;2.30;1.80;;;31.70;1.00;;;;;;5045930;28;20488;-86
2022/05/19 09:13:26;;;;;;;2.60;1.93;;;31.10;1.00;;;;;;5043972;28;20424;-89
2022/05/19 09:15:52;;;;;;;4.57;2.60;;;30.80;1.00;;;;;;5039890;28;20905;-90
2022/05/19 09:18:25;;;;;;;5.90;2.87;;;30.80;1.00;;;;;;5019596;28;20417;-92
2022/05/19 09:20:54;;;;;;;3.53;1.83;;;31.30;1.00;;;;;;5020184;28;20475;-89
2022/05/19 09:23:21;;;;;;;6.07;1.83;;;31.30;1.00;;;;;;5023290;28;20429;-91
2022/05/19 09:25:51;;;;;;;3.20;1.80;;;31.20;1.00;;;;;;5036469;28;20452;-89
2022/05/19 09:28:18;;;;;;;2.07;1.87;;;32.10;1.10;;;;;;5020977;28;20424;-92
2022/05/19 09:30:52;;;;;;;1.90;1.40;;;32.20;1.00;;;;;;5020936;28;20417;-88
2022/05/19 09:33:47;;;;;;;2.43;1.70;;;32.00;1.00;;;;;;5042499;28;20484;-89
2022/05/19 09:36:15;;;;;;;5.33;1.97;;;31.30;1.00;;;;;;5022082;28;20425;-92
2022/05/19 09:38:49;;;;;;;2.30;1.53;;;30.50;1.00;;;;;;5021941;28;20425;-91
2022/05/19 09:41:31;;;;;;;2.17;1.97;;;30.70;1.00;;;;;;5038788;28;20423;-92
2022/05/19 09:43:58;;;;;;;3.67;2.30;;;30.60;1.00;;;;;;5035961;28;20437;-91
2022/05/19 09:46:50;;;;;;;3.23;1.93;;;31.20;2.70;;;;;;5019870;28;20468;-95
2022/05/19 09:49:28;;;;;;;1.80;1.63;;;31.60;2.30;;;;;;5019329;28;20429;-93
2022/05/19 09:51:59;;;;;;;2.20;1.67;;;32.20;1.00;;;;;;5036743;28;21020;-94
2022/05/19 09:54:27;;;;;;;2.83;1.73;;;32.70;1.00;;;;;;5036944;28;20402;-94
2022/05/19 09:57:24;;;;;;;4.73;2.20;;;32.00;1.00;;;;;;5018092;28;20500;-94
2022/05/19 09:59:52;;;;;;;2.73;2.37;;;33.10;1.00;;;;;;5025816;28;20417;-96
2022/05/19 10:02:29;;;;;;;2.30;1.70;;;33.10;1.00;;;;;;5041312;28;20424;-90
2022/05/19 10:04:58;;;;;;;1.87;1.67;;;33.00;1.00;;;;;;5042399;28;20428;-94
2022/05/19 10:07:28;;;;;;;3.17;1.93;;;33.40;1.00;;;;;;5037589;28;20413;-93
2022/05/19 10:09:56;;;;;;;3.73;2.00;;;33.40;1.00;;;;;;5040185;28;20439;-95
2022/05/19 10:12:31;;;;;;;3.07;2.03;;;33.30;2.30;;;;;;5047331;28;20457;-95
2022/05/19 10:15:00;;;;;;;3.03;1.87;;;32.80;1.00;;;;;;5047305;28;20475;-95
2022/05/19 10:17:33;;;;;;;2.33;1.93;;;32.70;1.00;;;;;;5048408;28;20443;-92
2022/05/19 10:20:19;;;;;;;2.50;2.30;;;32.90;1.00;;;;;;5044705;28;20425;-94
2022/05/19 10:22:53;;;;;;;2.33;2.10;;;33.40;1.00;;;;;;5043793;28;20409;-95
2022/05/19 10:25:37;;;;;;;3.83;1.60;;;33.70;1.00;;;;;;5042720;28;20421;-94
2022/05/19 10:31:07;;;;;;;3.90;2.00;;;32.40;1.00;;;;;;5056001;28;20446;-89
2022/05/19 10:34:10;;;;;;;2.20;2.00;;;32.10;1.00;;;;;;5037857;28;20428;-92
2022/05/19 10:36:48;;;;;;;4.43;2.40;;;31.60;1.00;;;;;;5038694;28;20842;-92
2022/05/19 10:39:14;;;;;;;2.30;2.10;;;31.30;1.00;;;;;;5042513;28;20479;-90
2022/05/19 10:42:04;;;;;;;3.83;3.03;;;30.90;1.00;;;;;;5045008;28;20427;-92
2022/05/19 10:44:48;;;;;;;2.10;1.97;;;31.10;1.00;;;;;;5061384;28;20181;-89
2022/05/19 10:47:51;;;;;;;3.77;1.97;;;31.20;1.00;;;;;;5058715;28;20480;-85
2022/05/19 10:50:30;;;;;;;2.77;1.87;;;31.10;1.00;;;;;;5061961;28;20416;-85
2022/05/19 10:53:21;;;;;;;3.20;2.03;;;31.20;1.00;;;;;;5066845;28;20471;-88
2022/05/19 10:55:53;;;;;;;1.93;1.63;;;31.40;1.00;;;;;;5050518;28;20863;-88
2022/05/19 10:58:45;;;;;;;3.00;2.10;;;31.50;1.00;;;;;;5069129;28;20423;-94
2022/05/19 11:01:48;;;;;;;3.47;2.23;;;31.70;1.00;;;;;;5068052;28;20409;-89
2022/05/19 11:04:36;;;;;;;2.50;2.30;;;31.60;1.00;;;;;;5049728;28;20426;-87
2022/05/19 11:07:40;;;;;;;2.17;1.97;;;31.80;1.00;;;;;;5068741;28;20418;-88
2022/05/19 11:10:42;;;;;;;2.47;2.10;;;32.40;1.00;;;;;;5072896;28;20420;-87
2022/05/19 11:13:38;;;;;;;2.57;1.80;;;33.20;1.00;;;;;;5062982;28;20420;-87
2022/05/19 11:16:27;;;;;;;2.33;2.13;;;33.70;1.00;;;;;;5061364;28;20511;-86
2022/05/19 11:18:58;;;;;;;2.13;1.93;;;33.90;1.00;;;;;;5061982;28;20420;-96
2022/05/19 11:21:30;;;;;;;2.10;1.90;;;33.80;1.00;;;;;;5047566;28;20900;-90
2022/05/19 11:24:04;;;;;;;2.50;1.90;;;33.70;1.00;;;;;;5065410;28;20408;-89
2022/05/19 11:26:54;;;;;;;3.90;2.13;;;34.00;1.00;;;;;;5039680;28;20777;-88
2022/05/19 11:29:33;;;;;;;2.40;2.20;;;34.50;1.00;;;;;;5044000;28;20428;-87
2022/05/19 11:32:04;;;;;;;2.10;1.90;;;34.70;1.00;;;;;;5056254;28;20497;-87
2022/05/19 11:34:54;;;;;;;3.80;1.70;;;33.70;1.00;;;;;;5056213;28;20915;-87
2022/05/19 11:37:45;;;;;;;3.63;2.10;;;34.20;1.00;;;;;;5056104;28;20751;-88
2022/05/19 11:40:36;;;;;;;2.07;1.97;;;33.80;1.00;;;;;;5038178;28;20494;-87
2022/05/19 11:43:23;;;;;;;3.03;1.97;;;34.30;1.00;;;;;;5057695;28;20422;-93
2022/05/19 11:45:52;;;;;;;3.93;1.90;;;33.50;1.00;;;;;;5044828;28;20423;-96
2022/05/19 11:55:19;;;;;;;2.63;2.50;;;34.50;1.00;;;;;;5058134;28;20483;-94
2022/05/19 11:58:20;;;;;;;2.20;2.00;;;34.80;1.00;;;;;;5063773;28;20427;-96
2022/05/19 12:01:04;;;;;;;2.50;2.30;;;34.50;1.00;;;;;;5062906;28;20436;-91
2022/05/19 12:04:09;;;;;;;2.20;2.00;;;34.50;1.00;;;;;;5044915;28;21038;-92
2022/05/19 12:07:08;;;;;;;3.00;2.03;;;33.80;1.00;;;;;;5046824;28;20415;-89
2022/05/19 12:09:46;;;;;;;2.37;2.17;;;34.10;1.00;;;;;;5050337;28;20510;-87
2022/05/19 12:12:36;;;;;;;3.20;2.10;;;34.30;1.00;;;;;;5037438;28;20861;-88
2022/05/19 12:15:53;;;;;;;2.20;2.00;;;34.00;1.00;;;;;;5059859;28;20484;-87
2022/05/19 12:18:27;;;;;;;2.30;2.07;;;33.80;1.00;;;;;;5040387;28;20424;-88
2022/05/19 12:21:02;;;;;;;4.63;1.83;;;33.00;1.00;;;;;;5051064;28;20416;-94
2022/05/19 12:23:40;;;;;;;2.33;2.13;;;33.50;1.00;;;;;;5064024;28;20423;-90
2022/05/19 12:26:25;;;;;;;2.00;1.80;;;34.00;1.00;;;;;;5040650;28;20424;-90
2022/05/19 12:29:02;;;;;;;2.70;1.97;;;33.80;1.00;;;;;;5041063;28;20455;-87
2022/05/19 12:32:18;;;;;;;2.13;1.93;;;33.50;1.00;;;;;;5044124;28;20475;-95
2022/05/19 12:34:37;;;;;;;2.33;2.13;;;33.70;1.00;;;;;;5052845;28;20427;-86
2022/05/19 12:37:37;;;;;;;2.50;2.40;;;34.00;1.00;;;;;;5060863;28;20443;-86
2022/05/19 12:40:20;;;;;;;5.30;2.30;;;34.10;1.00;;;;;;5060636;28;20450;-87
2022/05/19 12:42:48;;;;;;;4.00;2.27;;;34.30;1.00;;;;;;5060249;28;20412;-89
2022/05/19 12:45:27;;;;;;;2.43;2.20;;;34.10;1.00;;;;;;5056368;28;20436;-90
2022/05/19 12:48:11;;;;;;;2.70;2.50;;;33.80;1.00;;;;;;5058012;28;20408;-88
2022/05/19 12:50:44;;;;;;;2.80;2.60;;;33.30;1.00;;;;;;5058285;28;20519;-92
2022/05/19 12:53:53;;;;;;;5.37;2.27;;;32.70;1.00;;;;;;5057383;28;20466;-90
2022/05/19 12:56:40;;;;;;;5.00;2.80;;;32.70;1.00;;;;;;5046986;28;20416;-89
2022/05/19 12:59:23;;;;;;;3.63;2.43;;;32.10;1.00;;;;;;5055621;28;20419;-89
2022/05/19 13:01:52;;;;;;;2.63;2.40;;;31.50;1.00;;;;;;5060609;28;20404;-95
2022/05/19 13:04:42;;;;;;;2.10;1.90;;;31.30;1.00;;;;;;5040036;28;20428;-95
2022/05/19 13:07:22;;;;;;;2.77;2.40;;;31.00;1.00;;;;;;5041917;28;20511;-94
2022/05/19 13:10:00;;;;;;;4.30;3.10;;;31.00;1.00;;;;;;5040135;28;20423;-92
2022/05/19 13:12:42;;;;;;;2.97;2.40;;;31.00;1.00;;;;;;5038504;28;20460;-92
2022/05/19 13:15:09;;;;;;;3.93;2.43;;;31.20;1.00;;;;;;5059200;28;20488;-95
2022/05/19 13:17:43;;;;;;;2.43;2.23;;;31.10;1.00;;;;;;5039895;28;20468;-95
2022/05/19 13:20:27;;;;;;;3.00;2.53;;;31.10;1.00;;;;;;5042405;28;20452;-92
2022/05/19 13:22:59;;;;;;;5.10;2.30;;;31.00;1.00;;;;;;5041344;28;20420;-94
2022/05/19 13:25:27;;;;;;;3.40;2.37;;;30.50;1.00;;;;;;5040938;28;20420;-95
2022/05/19 13:30:56;;;;;;;2.13;1.83;;;30.60;1.00;;;;;;5059263;28;20468;-93
2022/05/19 13:33:30;;;;;;;3.90;2.97;;;30.80;1.00;;;;;;5038874;28;20459;-93
2022/05/19 13:36:06;;;;;;;2.33;2.00;;;31.00;1.00;;;;;;5039585;28;20162;-92
2022/05/19 13:38:32;;;;;;;3.97;2.10;;;31.10;1.00;;;;;;5039986;28;20446;-94
2022/05/19 13:40:59;;;;;;;2.53;2.33;;;31.00;1.00;;;;;;5058385;28;20423;-94